Time;durP1;ratioP1;P1;durP2;ratioP2;P2;SDS_P1;SDS_P2;PMS_P1;PMS_P2;Temp;Humidity;BMP_temperature;BMP_pressure;BME280_temperature;BME280_humidity;BME280_pressure;Samples;Min_cycle;Max_cycle;Signal;HPM_P1;HPM_P2
2022/12/06 00:01:07;;;;;;;16.73;12.85;;;;;;;5.18;74.26;96869.53;5080324;28;20052;-91
2022/12/06 00:03:35;;;;;;;18.48;13.25;;;;;;;5.18;74.41;96866.97;5079930;28;20064;-91
2022/12/06 00:06:05;;;;;;;16.67;12.75;;;;;;;5.17;74.39;96860.16;5078943;28;20541;-87
2022/12/06 00:08:32;;;;;;;17.80;13.73;;;;;;;5.19;74.40;96853.09;5078194;28;20063;-91
2022/12/06 00:11:07;;;;;;;16.38;12.27;;;;;;;5.20;74.10;96865.06;5078950;28;20481;-85
2022/12/06 00:13:35;;;;;;;16.65;12.45;;;;;;;5.21;74.08;96871.88;5078914;28;20139;-90
2022/12/06 00:16:04;;;;;;;19.48;12.77;;;;;;;5.20;74.44;96867.63;5079259;28;20449;-89
2022/12/06 00:18:34;;;;;;;17.33;12.00;;;;;;;5.19;74.43;96866.03;5079136;28;20110;-84
2022/12/06 00:21:09;;;;;;;16.75;11.88;;;;;;;5.20;75.14;96877.16;5101808;22;20059;-77
2022/12/06 00:23:37;;;;;;;18.52;12.68;;;;;;;5.22;74.58;96863.13;5074075;28;20064;-78
2022/12/06 00:26:08;;;;;;;17.33;11.60;;;;;;;5.24;74.39;96871.56;5074160;28;20486;-77
2022/12/06 00:28:37;;;;;;;20.13;13.23;;;;;;;5.28;74.09;96861.78;5074306;28;20048;-77
2022/12/06 00:31:07;;;;;;;19.50;13.30;;;;;;;5.30;73.65;96859.84;5073504;28;20521;-77
2022/12/06 00:33:36;;;;;;;20.55;14.27;;;;;;;5.29;73.30;96858.22;5073520;28;20425;-77
2022/12/06 00:36:06;;;;;;;20.67;13.85;;;;;;;5.29;73.28;96858.22;5073860;28;20056;-78
2022/12/06 00:38:35;;;;;;;19.15;13.45;;;;;;;5.28;73.47;96852.22;5074255;28;20045;-77
2022/12/06 00:41:04;;;;;;;17.85;13.73;;;;;;;5.27;73.31;96852.38;5074303;28;20422;-77
2022/12/06 00:43:35;;;;;;;20.75;14.05;;;;;;;5.25;73.26;96849.13;5073912;28;20045;-78
2022/12/06 00:46:04;;;;;;;18.85;12.80;;;;;;;5.18;73.45;96846.28;5073714;28;20513;-78
2022/12/06 00:48:32;;;;;;;17.23;13.10;;;;;;;5.15;73.87;96851.75;5073965;28;20060;-77
2022/12/06 00:51:00;;;;;;;15.30;11.43;;;;;;;5.15;74.32;96854.31;5074113;28;20045;-77
2022/12/06 00:53:28;;;;;;;15.18;11.13;;;;;;;5.16;74.83;96848.22;5074246;28;20044;-78
2022/12/06 00:55:55;;;;;;;14.82;11.25;;;;;;;5.19;75.06;96847.91;5073795;28;20044;-77
2022/12/06 00:58:24;;;;;;;16.55;11.50;;;;;;;5.19;74.91;96858.25;5073573;28;20048;-77
2022/12/06 01:00:53;;;;;;;15.43;10.20;;;;;;;5.19;74.85;96853.09;5073988;28;20049;-77
2022/12/06 01:03:21;;;;;;;15.25;10.95;;;;;;;5.21;75.63;96855.53;5085306;28;20048;-78
2022/12/06 01:05:50;;;;;;;13.40;11.00;;;;;;;5.24;75.72;96856.06;5087030;28;20045;-78
2022/12/06 01:08:19;;;;;;;14.73;10.93;;;;;;;5.28;75.91;96854.81;5077494;28;20059;-77
2022/12/06 01:10:54;;;;;;;15.70;12.00;;;;;;;5.30;75.28;96859.84;5074891;28;20044;-77
2022/12/06 01:13:21;;;;;;;14.02;10.30;;;;;;;5.31;75.80;96857.13;5073947;28;20049;-77
2022/12/06 01:15:49;;;;;;;13.73;10.48;;;;;;;5.33;75.87;96862.97;5073780;28;20049;-77
2022/12/06 01:18:18;;;;;;;14.43;11.32;;;;;;;5.33;74.61;96855.19;5073642;28;20521;-77
2022/12/06 01:20:45;;;;;;;15.48;11.65;;;;;;;5.33;74.32;96862.97;5074761;28;20044;-77
2022/12/06 01:23:13;;;;;;;16.25;11.13;;;;;;;5.32;74.36;96861.34;5073707;28;20056;-77
2022/12/06 01:25:49;;;;;;;14.45;10.50;;;;;;;5.29;74.30;96864.22;5074280;28;20045;-77
2022/12/06 01:28:16;;;;;;;16.88;12.20;;;;;;;5.30;74.47;96857.28;5074056;28;20048;-77
2022/12/06 01:30:44;;;;;;;15.73;11.48;;;;;;;5.29;74.98;96853.03;5074399;28;20052;-77
2022/12/06 01:33:12;;;;;;;16.30;12.10;;;;;;;5.27;74.46;96860.13;5074849;28;20052;-77
2022/12/06 01:35:41;;;;;;;16.38;11.30;;;;;;;5.25;74.18;96856.91;5074290;28;20049;-78
2022/12/06 01:38:09;;;;;;;16.73;11.27;;;;;;;5.22;74.25;96859.75;5073402;28;20051;-77
2022/12/06 01:40:38;;;;;;;16.52;12.00;;;;;;;5.19;74.12;96863.44;5073660;28;20059;-77
2022/12/06 01:43:10;;;;;;;15.65;11.13;;;;;;;5.20;74.85;96857.28;5073737;28;20049;-77
2022/12/06 01:45:45;;;;;;;14.60;10.95;;;;;;;5.24;75.26;96852.66;5073758;28;20041;-77
2022/12/06 01:48:12;;;;;;;14.73;10.80;;;;;;;5.24;74.91;96850.88;5073312;28;20048;-77
2022/12/06 01:50:41;;;;;;;14.75;10.55;;;;;;;5.26;74.56;96845.56;5073022;28;20616;-77
2022/12/06 01:53:10;;;;;;;14.23;10.43;;;;;;;5.26;74.72;96836.03;5072874;28;20048;-77
2022/12/06 01:55:40;;;;;;;12.95;10.27;;;;;;;5.32;75.46;96837.25;5072815;28;20060;-77
2022/12/06 01:58:12;;;;;;;12.63;10.50;;;;;;;5.34;75.23;96835.34;5076275;28;20495;-77
2022/12/06 02:00:40;;;;;;;14.15;10.05;;;;;;;5.34;75.05;96840.50;5077345;28;20486;-77
2022/12/06 02:03:12;;;;;;;14.13;11.20;;;;;;;5.33;75.74;96829.31;5077526;28;20048;-77
2022/12/06 02:05:41;;;;;;;13.88;10.85;;;;;;;5.34;74.74;96833.56;5077611;28;20048;-77
2022/12/06 02:08:10;;;;;;;13.20;10.07;;;;;;;5.35;75.30;96827.41;5076670;28;20456;-77
2022/12/06 02:10:38;;;;;;;14.55;10.10;;;;;;;5.37;75.66;96828.09;5077236;28;20057;-77
2022/12/06 02:13:07;;;;;;;14.57;10.48;;;;;;;5.39;75.95;96829.72;5077140;28;20052;-77
2022/12/06 02:15:43;;;;;;;12.20;9.73;;;;;;;5.40;75.64;96821.00;5077050;28;20496;-77
2022/12/06 02:18:15;;;;;;;13.43;10.23;;;;;;;5.39;75.37;96829.72;5076902;28;20074;-78
2022/12/06 02:20:49;;;;;;;12.13;9.83;;;;;;;5.39;75.34;96827.16;5077245;28;20187;-77
2022/12/06 02:23:38;;;;;;;14.77;9.77;;;;;;;5.37;74.60;96830.69;5076693;28;20286;-77
2022/12/06 02:26:24;;;;;;;12.25;9.60;;;;;;;5.37;74.17;96824.69;5077050;28;20044;-78
2022/12/06 02:29:30;;;;;;;12.40;9.25;;;;;;;5.33;73.89;96821.56;5076544;28;20063;-77
2022/12/06 02:32:03;;;;;;;11.45;8.73;;;;;;;5.31;75.00;96815.75;5076073;28;20442;-77
2022/12/06 02:34:39;;;;;;;15.43;10.88;;;;;;;5.29;74.52;96812.50;5076246;28;20054;-78
2022/12/06 02:37:11;;;;;;;12.57;9.85;;;;;;;5.28;75.00;96807.44;5076401;28;20040;-77
2022/12/06 02:39:46;;;;;;;14.07;10.30;;;;;;;5.25;74.17;96800.81;5076318;28;20052;-77
2022/12/06 02:42:19;;;;;;;12.63;9.85;;;;;;;5.25;75.40;96811.16;5076377;28;20048;-77
2022/12/06 02:44:51;;;;;;;12.48;9.50;;;;;;;5.29;75.13;96806.47;5075991;28;20060;-77
2022/12/06 02:47:23;;;;;;;13.05;9.13;;;;;;;5.32;75.68;96801.03;5076178;28;20051;-77
2022/12/06 02:49:53;;;;;;;10.45;8.20;;;;;;;5.32;75.68;96801.03;5076142;28;20056;-77
2022/12/06 02:52:24;;;;;;;10.50;8.65;;;;;;;5.34;75.91;96792.16;5075901;28;20052;-78
2022/12/06 02:54:56;;;;;;;12.80;10.02;;;;;;;5.35;75.88;96796.38;5076556;28;20059;-77
2022/12/06 02:57:33;;;;;;;13.93;10.50;;;;;;;5.35;75.82;96790.38;5076294;28;20048;-77
2022/12/06 03:00:01;;;;;;;12.40;10.13;;;;;;;5.34;75.35;96792.16;5076349;28;20426;-77
2022/12/06 03:02:33;;;;;;;11.93;9.52;;;;;;;5.35;74.40;96795.56;5076754;28;20518;-77
2022/12/06 03:05:12;;;;;;;12.85;9.85;;;;;;;5.31;74.00;96787.28;5076448;28;20080;-77
2022/12/06 03:07:44;;;;;;;14.52;10.45;;;;;;;5.26;73.79;96786.91;5075700;28;20056;-77
2022/12/06 03:10:34;;;;;;;11.68;9.38;;;;;;;5.25;73.32;96782.69;5076331;28;20060;-79
2022/12/06 03:13:13;;;;;;;14.43;9.32;;;;;;;5.24;73.35;96783.63;5076005;28;20055;-78
2022/12/06 03:15:53;;;;;;;12.18;9.38;;;;;;;5.23;73.71;96784.59;5076079;28;20135;-77
2022/12/06 03:18:30;;;;;;;11.20;8.75;;;;;;;5.22;74.32;96780.38;5075802;28;20064;-77
2022/12/06 03:21:03;;;;;;;12.63;9.70;;;;;;;5.20;74.16;96779.72;5075607;28;20506;-77
2022/12/06 03:23:35;;;;;;;16.15;9.35;;;;;;;5.20;74.43;96777.13;5075676;28;20051;-77
2022/12/06 03:26:05;;;;;;;10.25;8.50;;;;;;;5.19;75.02;96775.50;5076311;28;20083;-77
2022/12/06 03:28:35;;;;;;;13.73;10.27;;;;;;;5.20;74.53;96773.72;5075572;28;20044;-77
2022/12/06 03:31:05;;;;;;;11.63;8.05;;;;;;;5.20;74.93;96763.38;5075865;28;20052;-77
2022/12/06 03:33:37;;;;;;;11.85;9.73;;;;;;;5.20;75.98;96771.94;5075753;28;20057;-77
2022/12/06 03:36:06;;;;;;;12.35;10.02;;;;;;;5.18;75.47;96767.88;5075894;28;20045;-77
2022/12/06 03:38:39;;;;;;;10.23;8.60;;;;;;;5.18;75.61;96768.69;5076504;28;20489;-78
2022/12/06 03:41:08;;;;;;;12.68;9.68;;;;;;;5.17;75.41;96772.25;5075814;28;20090;-77
2022/12/06 03:43:36;;;;;;;13.43;10.02;;;;;;;5.14;75.03;96767.38;5075611;28;20052;-78
2022/12/06 03:46:08;;;;;;;11.73;9.52;;;;;;;5.10;74.10;96771.19;5080307;28;20085;-77
2022/12/06 03:48:41;;;;;;;11.50;8.93;;;;;;;5.07;75.28;96771.47;5086736;28;20052;-77
2022/12/06 03:51:13;;;;;;;13.15;8.70;;;;;;;5.04;75.22;96772.56;5081980;28;20442;-78
2022/12/06 03:53:46;;;;;;;12.68;9.73;;;;;;;5.00;73.91;96765.25;5077428;28;20056;-78
2022/12/06 03:56:14;;;;;;;13.70;9.65;;;;;;;4.94;74.29;96767.44;5077125;28;20052;-77
2022/12/06 03:58:42;;;;;;;13.48;9.07;;;;;;;4.91;73.85;96761.75;5076258;28;20059;-77
2022/12/06 04:01:09;;;;;;;11.65;9.52;;;;;;;4.88;73.84;96760.25;5076569;28;20049;-77
2022/12/06 04:03:38;;;;;;;12.32;8.90;;;;;;;4.85;73.10;96759.72;5075204;28;20052;-77
2022/12/06 04:06:08;;;;;;;13.23;9.77;;;;;;;4.82;72.93;96770.34;5075496;28;20055;-77
2022/12/06 04:08:36;;;;;;;10.75;8.77;;;;;;;4.78;73.05;96763.84;5074208;28;20054;-77
2022/12/06 04:11:04;;;;;;;11.45;8.85;;;;;;;4.74;73.13;96760.72;5075353;28;20087;-78
2022/12/06 04:13:34;;;;;;;11.88;8.88;;;;;;;4.72;72.76;96754.88;5075426;28;20048;-77
2022/12/06 04:16:02;;;;;;;11.63;8.90;;;;;;;4.71;72.73;96750.66;5075654;28;20059;-78
2022/12/06 04:18:29;;;;;;;14.07;10.05;;;;;;;4.69;72.90;96750.81;5074683;28;20152;-77
2022/12/06 04:23:47;;;;;;;12.05;9.07;;;;;;;4.59;72.67;96746.63;5074916;28;20048;-77
2022/12/06 04:26:18;;;;;;;13.20;8.90;;;;;;;4.57;72.95;96743.34;5074824;28;20064;-77
2022/12/06 04:39:49;;;;;;;10.23;7.95;;;;;;;4.47;72.50;96739.03;5074827;28;20052;-77
2022/12/06 04:45:03;;;;;;;9.50;7.60;;;;;;;4.46;73.55;96739.16;5074642;28;20056;-77
2022/12/06 04:47:31;;;;;;;11.93;7.85;;;;;;;4.44;73.26;96734.16;5074502;28;20049;-77
2022/12/06 04:49:59;;;;;;;11.68;7.68;;;;;;;4.45;73.18;96729.81;5074184;28;20048;-77
2022/12/06 04:52:28;;;;;;;10.88;7.53;;;;;;;4.46;72.91;96727.09;5074329;28;20051;-77
2022/12/06 04:55:02;;;;;;;8.95;7.43;;;;;;;4.49;72.59;96721.63;5074555;28;20056;-77
2022/12/06 04:57:30;;;;;;;11.75;7.45;;;;;;;4.48;72.11;96725.19;5074152;28;20048;-77
2022/12/06 04:59:57;;;;;;;9.68;7.53;;;;;;;4.46;72.54;96728.84;5074125;28;20090;-77
2022/12/06 05:02:25;;;;;;;9.18;7.38;;;;;;;4.43;72.85;96727.34;5074340;28;20045;-78
2022/12/06 05:04:53;;;;;;;10.02;8.00;;;;;;;4.40;72.89;96719.91;5073713;28;20115;-77
2022/12/06 05:07:20;;;;;;;9.98;8.07;;;;;;;4.38;73.10;96724.38;5073965;28;20056;-77
2022/12/06 05:09:49;;;;;;;9.70;8.07;;;;;;;4.41;73.61;96723.28;5073046;28;20053;-77
2022/12/06 05:12:17;;;;;;;9.23;7.43;;;;;;;4.44;73.18;96715.25;5073905;28;20449;-77
2022/12/06 05:14:44;;;;;;;11.63;8.63;;;;;;;4.45;73.07;96712.53;5073940;28;20054;-77
2022/12/06 05:17:12;;;;;;;19.17;11.55;;;;;;;4.48;72.83;96716.59;5074321;28;20418;-77
2022/12/06 05:19:39;;;;;;;18.52;11.18;;;;;;;4.48;72.50;96709.69;5074816;28;20052;-77
2022/12/06 05:22:07;;;;;;;17.95;11.35;;;;;;;4.49;72.48;96705.31;5073925;28;20060;-77
2022/12/06 05:24:34;;;;;;;16.27;11.52;;;;;;;4.48;72.73;96708.84;5073907;28;20533;-77
2022/12/06 05:27:03;;;;;;;13.02;9.98;;;;;;;4.48;72.41;96714.84;5072121;28;20056;-77
2022/12/06 05:29:31;;;;;;;12.00;8.80;;;;;;;4.47;72.10;96707.22;5072743;28;20050;-78
2022/12/06 05:31:59;;;;;;;10.63;8.55;;;;;;;4.46;72.10;96709.00;5075450;28;20044;-77
2022/12/06 05:34:26;;;;;;;10.85;8.07;;;;;;;4.45;72.55;96702.19;5077780;28;20056;-77
2022/12/06 05:36:54;;;;;;;12.75;8.82;;;;;;;4.47;72.37;96705.47;5075388;28;20037;-79
2022/12/06 05:39:22;;;;;;;13.63;9.20;;;;;;;4.48;72.53;96714.84;5074851;28;20044;-77
2022/12/06 05:41:49;;;;;;;10.45;7.82;;;;;;;4.50;72.81;96712.94;5074125;28;20049;-77
2022/12/06 05:44:18;;;;;;;10.80;8.48;;;;;;;4.51;73.24;96719.72;5072865;28;20052;-78
2022/12/06 05:46:46;;;;;;;9.73;7.75;;;;;;;4.51;73.22;96722.31;5072650;28;20064;-77
2022/12/06 05:49:13;;;;;;;10.30;7.88;;;;;;;4.53;73.77;96712.66;5073766;28;20052;-77
2022/12/06 05:51:41;;;;;;;12.02;8.35;;;;;;;4.56;72.90;96715.91;5072421;28;20084;-77
2022/12/06 05:54:08;;;;;;;9.65;7.85;;;;;;;4.57;72.85;96715.78;5072180;28;20494;-77
2022/12/06 05:56:36;;;;;;;9.48;7.50;;;;;;;4.58;73.09;96717.38;5072046;28;20055;-77
2022/12/06 05:59:04;;;;;;;12.52;8.60;;;;;;;4.59;72.66;96718.19;5073331;28;20044;-76
2022/12/06 06:01:32;;;;;;;11.95;7.97;;;;;;;4.61;73.01;96724.03;5070992;28;20049;-75
2022/12/06 06:04:00;;;;;;;9.50;8.02;;;;;;;4.62;73.12;96717.94;5070692;28;20055;-76
2022/12/06 06:06:28;;;;;;;11.75;8.18;;;;;;;4.63;73.04;96711.78;5071587;28;20573;-75
2022/12/06 06:08:55;;;;;;;9.32;7.50;;;;;;;4.66;73.13;96716.69;5071599;28;20418;-76
2022/12/06 06:11:23;;;;;;;11.27;8.45;;;;;;;4.67;72.60;96719.13;5072910;28;20106;-76
2022/12/06 06:13:50;;;;;;;21.38;13.15;;;;;;;4.69;72.85;96713.81;5071983;28;20121;-76
2022/12/06 06:16:18;;;;;;;11.70;8.93;;;;;;;4.69;72.65;96709.47;5072055;28;20048;-76
2022/12/06 06:18:47;;;;;;;9.52;7.75;;;;;;;4.67;72.48;96719.13;5071187;28;20052;-76
2022/12/06 06:21:14;;;;;;;12.95;8.73;;;;;;;4.66;72.08;96724.44;5072336;28;20045;-75
2022/12/06 06:23:42;;;;;;;10.55;8.27;;;;;;;4.64;72.90;96713.44;5110228;22;20052;-79
2022/12/06 06:26:11;;;;;;;12.50;9.13;;;;;;;4.69;73.23;96721.56;5090142;28;20055;-78
2022/12/06 06:28:39;;;;;;;12.15;9.23;;;;;;;4.69;72.11;96716.41;5090245;28;20048;-78
2022/12/06 06:31:06;;;;;;;12.88;8.93;;;;;;;4.68;71.67;96720.75;5090735;28;20055;-78
2022/12/06 06:33:35;;;;;;;15.48;10.57;;;;;;;4.65;71.34;96720.22;5090158;28;20160;-79
2022/12/06 06:36:04;;;;;;;11.80;9.00;;;;;;;4.62;71.56;96723.91;5090150;28;20060;-79
2022/12/06 06:38:32;;;;;;;11.30;8.80;;;;;;;4.60;71.90;96718.06;5090274;28;20290;-79
2022/12/06 06:41:01;;;;;;;12.40;9.15;;;;;;;4.61;72.25;96718.88;5092058;28;20062;-79
2022/12/06 06:43:29;;;;;;;11.35;8.88;;;;;;;4.62;72.60;96716.16;5094734;28;20051;-79
2022/12/06 06:45:58;;;;;;;11.75;8.85;;;;;;;4.63;72.51;96715.19;5095926;28;20131;-79
2022/12/06 06:48:28;;;;;;;14.57;10.52;;;;;;;4.64;71.95;96719.41;5095644;28;20047;-79
2022/12/06 06:50:56;;;;;;;14.80;10.57;;;;;;;4.66;71.98;96721.88;5095898;28;20467;-79
2022/12/06 06:53:26;;;;;;;13.77;9.55;;;;;;;4.67;72.55;96723.47;5095917;28;20442;-78
2022/12/06 06:55:54;;;;;;;13.07;9.52;;;;;;;4.69;72.49;96729.31;5095836;28;20145;-78
2022/12/06 06:58:22;;;;;;;14.40;9.50;;;;;;;4.68;72.88;96728.50;5095333;28;20417;-79
2022/12/06 07:00:53;;;;;;;9.90;8.68;;;;;;;4.69;72.85;96737.06;5095755;28;20048;-79
2022/12/06 07:03:22;;;;;;;14.48;9.90;;;;;;;4.71;72.47;96735.97;5095393;28;20458;-78
2022/12/06 07:05:53;;;;;;;12.88;8.63;;;;;;;4.74;73.02;96734.88;5095218;28;20051;-79
2022/12/06 07:08:21;;;;;;;9.82;7.53;;;;;;;4.77;73.33;96732.00;5095305;28;20055;-79
2022/12/06 07:10:51;;;;;;;10.30;8.05;;;;;;;4.80;73.61;96736.09;5095509;28;20071;-79
2022/12/06 07:13:19;;;;;;;10.02;7.55;;;;;;;4.84;73.95;96740.00;5095777;28;20052;-78
2022/12/06 07:15:47;;;;;;;9.68;7.78;;;;;;;4.88;73.73;96734.41;5095356;28;20056;-79
2022/12/06 07:18:15;;;;;;;9.90;7.80;;;;;;;4.91;73.04;96736.69;5095425;28;20047;-79
2022/12/06 07:20:43;;;;;;;10.77;7.65;;;;;;;4.93;73.69;96734.78;5095546;28;20063;-78
2022/12/06 07:23:10;;;;;;;10.63;8.20;;;;;;;4.97;72.89;96731.94;5094871;28;20455;-79
2022/12/06 07:25:38;;;;;;;9.82;7.72;;;;;;;4.94;72.28;96726.09;5095145;28;20048;-78
2022/12/06 07:28:07;;;;;;;11.32;7.47;;;;;;;4.92;72.09;96730.59;5094971;28;20246;-79
2022/12/06 07:30:34;;;;;;;11.98;7.18;;;;;;;4.91;72.39;96725.56;5094993;28;20058;-79
2022/12/06 07:33:02;;;;;;;8.68;7.35;;;;;;;4.91;72.51;96721.19;5095097;28;20054;-79
2022/12/06 07:35:30;;;;;;;8.75;7.15;;;;;;;4.92;72.56;96733.19;5095025;28;20043;-79
2022/12/06 07:38:17;;;;;;;9.48;7.55;;;;;;;4.98;73.22;96720.63;5094927;28;20052;-79
2022/12/06 07:40:45;;;;;;;9.73;7.07;;;;;;;5.02;73.37;96719.38;5094944;28;20417;-79
2022/12/06 07:46:19;;;;;;;8.32;6.72;;;;;;;5.06;73.15;96718.16;5104748;28;20109;-80
2022/12/06 07:48:47;;;;;;;8.55;6.40;;;;;;;5.03;72.59;96723.59;5095055;28;20048;-79
2022/12/06 07:51:14;;;;;;;9.55;7.55;;;;;;;5.03;72.96;96723.59;5094806;28;20044;-79
2022/12/06 07:53:42;;;;;;;9.02;7.25;;;;;;;5.05;74.02;96729.44;5094154;28;20048;-78
2022/12/06 07:56:10;;;;;;;9.13;6.65;;;;;;;5.05;73.89;96727.69;5094797;28;20074;-79
2022/12/06 07:58:38;;;;;;;10.15;7.85;;;;;;;5.06;73.75;96731.06;5094473;28;20055;-78
2022/12/06 08:01:06;;;;;;;8.90;7.63;;;;;;;5.05;74.16;96719.91;5094747;28;20048;-79
2022/12/06 08:03:34;;;;;;;10.10;7.90;;;;;;;5.08;73.87;96721.41;5094618;28;20055;-79
2022/12/06 08:06:01;;;;;;;8.93;7.25;;;;;;;5.11;74.24;96721.09;5095961;28;20048;-79
2022/12/06 08:08:30;;;;;;;8.27;7.25;;;;;;;5.13;74.34;96722.56;5095277;28;20051;-79
2022/12/06 08:10:59;;;;;;;10.90;8.75;;;;;;;5.12;73.64;96715.78;5096207;28;20044;-79
2022/12/06 08:13:26;;;;;;;10.45;7.53;;;;;;;5.11;73.66;96721.09;5096102;28;20131;-79
2022/12/06 08:15:56;;;;;;;9.55;7.25;;;;;;;5.10;73.99;96714.31;5095662;28;20048;-79
2022/12/06 08:18:24;;;;;;;8.43;7.53;;;;;;;5.11;73.34;96718.50;5093974;28;20497;-79
2022/12/06 08:20:52;;;;;;;8.52;6.25;;;;;;;5.09;72.91;96717.84;5094640;28;20066;-79
2022/12/06 08:23:19;;;;;;;8.27;6.93;;;;;;;5.08;73.60;96719.63;5094114;28;20054;-79
2022/12/06 08:25:47;;;;;;;7.75;6.78;;;;;;;5.08;73.52;96724.78;5094237;28;20052;-79
2022/12/06 08:28:15;;;;;;;8.95;6.95;;;;;;;5.08;73.80;96727.38;5093795;28;20051;-79
2022/12/06 08:30:42;;;;;;;10.68;7.78;;;;;;;5.12;73.88;96723.56;5093967;28;20048;-79
2022/12/06 08:33:11;;;;;;;8.13;6.75;;;;;;;5.14;73.82;96731.16;5094058;28;20504;-79
2022/12/06 08:35:39;;;;;;;10.30;6.65;;;;;;;5.16;73.71;96734.44;5093681;28;20711;-79
2022/12/06 08:38:06;;;;;;;9.55;6.75;;;;;;;5.13;73.46;96732.13;5093569;28;20048;-79
2022/12/06 08:40:34;;;;;;;8.95;7.15;;;;;;;5.14;73.71;96737.16;5094078;28;20040;-79
2022/12/06 08:43:02;;;;;;;9.45;7.00;;;;;;;5.15;73.41;96723.25;5093716;28;20513;-79
2022/12/06 08:45:29;;;;;;;8.60;6.63;;;;;;;5.18;73.57;96727.31;5093428;28;20332;-79
2022/12/06 08:47:57;;;;;;;7.43;6.00;;;;;;;5.22;72.85;96723.47;5093439;28;20055;-79
2022/12/06 08:50:26;;;;;;;8.02;6.72;;;;;;;5.20;71.48;96722.81;5093545;28;20490;-79
2022/12/06 08:52:53;;;;;;;8.07;6.28;;;;;;;5.15;71.24;96723.25;5093564;28;20066;-79
2022/12/06 08:55:21;;;;;;;9.50;7.20;;;;;;;5.11;71.89;96734.84;5093624;28;20060;-79
2022/12/06 08:57:48;;;;;;;9.10;6.97;;;;;;;5.16;72.79;96731.84;5093262;28;20044;-79
2022/12/06 09:00:17;;;;;;;8.98;6.47;;;;;;;5.23;73.34;96730.31;5093311;28;20427;-79
2022/12/06 09:02:44;;;;;;;9.85;5.57;;;;;;;5.27;73.42;96735.97;5093598;28;20059;-79
2022/12/06 09:05:12;;;;;;;7.32;6.28;;;;;;;5.27;72.90;96730.81;5093160;28;20044;-79
2022/12/06 09:07:41;;;;;;;8.07;6.53;;;;;;;5.25;72.09;96740.50;5092995;28;20052;-79
2022/12/06 09:10:10;;;;;;;8.93;6.05;;;;;;;5.24;72.74;96731.91;5092879;28;20097;-79
2022/12/06 09:12:37;;;;;;;7.93;6.18;;;;;;;5.25;72.95;96733.56;5092862;28;20413;-79
2022/12/06 09:15:06;;;;;;;6.90;5.95;;;;;;;5.29;72.98;96744.41;5093302;28;20086;-79
2022/12/06 09:17:33;;;;;;;7.15;5.75;;;;;;;5.33;73.31;96740.56;5093018;28;20044;-79
2022/12/06 09:20:01;;;;;;;8.68;6.57;;;;;;;5.36;73.35;96735.94;5093196;28;20059;-79
2022/12/06 09:22:33;;;;;;;7.57;6.18;;;;;;;5.38;73.64;96743.56;5093121;28;20075;-79
2022/12/06 09:25:01;;;;;;;7.00;5.53;;;;;;;5.42;72.84;96751.81;5092842;28;20075;-79
2022/12/06 09:27:30;;;;;;;6.35;5.13;;;;;;;5.40;71.68;96743.38;5093146;28;20055;-79
2022/12/06 09:29:58;;;;;;;5.32;4.72;;;;;;;5.40;71.94;96740.81;5092696;28;20059;-78
2022/12/06 09:32:26;;;;;;;7.82;5.10;;;;;;;5.43;72.48;96736.16;5093034;28;20494;-79
2022/12/06 09:34:54;;;;;;;6.47;5.03;;;;;;;5.48;71.93;96743.47;5092758;28;20056;-79
2022/12/06 09:37:21;;;;;;;5.95;5.07;;;;;;;5.50;72.04;96741.56;5092804;28;20052;-79
2022/12/06 09:39:53;;;;;;;5.97;4.57;;;;;;;5.50;72.22;96734.59;5092794;28;20086;-79
2022/12/06 09:42:55;;;;;;;8.70;5.18;;;;;;;5.50;71.65;96737.19;5093268;28;20052;-79
2022/12/06 09:45:47;;;;;;;6.53;5.05;;;;;;;5.47;72.32;96737.50;5092980;28;20059;-79
2022/12/06 09:48:34;;;;;;;6.95;5.18;;;;;;;5.46;70.51;96729.88;5092610;28;20048;-79
2022/12/06 09:51:15;;;;;;;5.65;4.85;;;;;;;5.49;72.45;96725.22;5092568;28;20051;-79
2022/12/06 09:53:57;;;;;;;5.35;4.80;;;;;;;5.53;72.72;96733.50;5092653;28;20048;-79
2022/12/06 09:56:30;;;;;;;5.72;4.95;;;;;;;5.55;72.49;96729.00;5093037;28;20052;-79
2022/12/06 09:59:12;;;;;;;6.22;4.63;;;;;;;5.53;71.87;96736.91;5092889;28;20060;-79
2022/12/06 10:01:57;;;;;;;6.03;4.70;;;;;;;5.52;71.04;96729.31;5092953;28;20105;-80
2022/12/06 10:04:52;;;;;;;5.70;4.82;;;;;;;5.51;70.70;96725.91;5093717;28;20101;-80
2022/12/06 10:07:28;;;;;;;4.55;3.95;;;;;;;5.52;71.69;96726.72;5093714;28;20048;-79
2022/12/06 10:10:07;;;;;;;4.90;4.32;;;;;;;5.56;72.38;96715.13;5093712;28;20044;-79
2022/12/06 10:12:51;;;;;;;5.72;4.03;;;;;;;5.56;70.03;96712.53;5092649;28;20044;-79
2022/12/06 10:15:28;;;;;;;4.63;3.72;;;;;;;5.55;69.98;96724.66;5092520;28;20421;-81
2022/12/06 10:18:12;;;;;;;5.03;3.95;;;;;;;5.55;69.89;96713.47;5094383;28;20422;-79
2022/12/06 10:20:49;;;;;;;5.40;3.85;;;;;;;5.58;69.50;96710.59;5096761;28;20509;-79
2022/12/06 10:23:29;;;;;;;5.78;3.97;;;;;;;5.58;69.40;96718.38;5096253;28;20044;-79
2022/12/06 10:26:05;;;;;;;4.95;3.38;;;;;;;5.58;68.63;96713.19;5096483;28;20058;-79
2022/12/06 10:28:42;;;;;;;5.03;4.53;;;;;;;5.57;69.84;96711.53;5096464;28;20051;-79
2022/12/06 10:31:21;;;;;;;6.22;4.22;;;;;;;5.54;69.02;96715.25;5096674;28;20047;-79
2022/12/06 10:33:55;;;;;;;7.22;5.80;;;;;;;5.53;69.29;96711.03;5096280;28;20052;-79
2022/12/06 10:36:38;;;;;;;6.63;5.57;;;;;;;5.53;70.09;96717.97;5096689;28;20054;-79
2022/12/06 10:39:15;;;;;;;10.57;8.40;;;;;;;5.53;70.25;96710.22;5096224;28;20421;-79
2022/12/06 10:41:52;;;;;;;11.57;8.98;;;;;;;5.48;69.67;96709.84;5096410;28;20048;-79
2022/12/06 10:44:28;;;;;;;13.88;8.55;;;;;;;5.49;72.06;96707.13;5096022;28;20425;-79
2022/12/06 10:47:05;;;;;;;8.68;7.18;;;;;;;5.51;72.00;96697.44;5096507;28;20052;-79
2022/12/06 10:49:42;;;;;;;7.68;6.20;;;;;;;5.51;72.35;96694.03;5095966;28;20054;-79
2022/12/06 10:52:33;;;;;;;7.82;6.45;;;;;;;5.54;72.78;96693.75;5095891;28;20047;-79
2022/12/06 10:55:14;;;;;;;7.35;5.82;;;;;;;5.58;72.16;96698.47;5096339;28;20056;-79
2022/12/06 10:57:46;;;;;;;8.77;6.30;;;;;;;5.62;71.94;96693.81;5096363;28;20070;-79
2022/12/06 11:00:16;;;;;;;8.07;6.68;;;;;;;5.62;71.29;96691.25;5095857;28;20051;-79
2022/12/06 11:02:53;;;;;;;6.18;5.50;;;;;;;5.63;72.44;96694.63;5095890;28;20052;-79
2022/12/06 11:05:25;;;;;;;7.78;6.57;;;;;;;5.67;72.71;96694.19;5099964;28;20052;-80
2022/12/06 11:07:59;;;;;;;7.28;5.78;;;;;;;5.67;72.43;96696.78;5113736;28;20052;-80
2022/12/06 11:10:29;;;;;;;7.20;6.18;;;;;;;5.67;72.16;96699.34;5107344;28;20044;-80
2022/12/06 11:13:00;;;;;;;7.32;6.28;;;;;;;5.69;72.10;96700.03;5095625;28;20428;-79
2022/12/06 11:15:32;;;;;;;8.45;6.80;;;;;;;5.69;71.09;96694.84;5095647;28;20052;-81
2022/12/06 11:18:09;;;;;;;7.07;5.88;;;;;;;5.69;71.70;96694.84;5094815;28;20048;-81
2022/12/06 11:20:42;;;;;;;9.23;6.72;;;;;;;5.69;72.21;96694.84;5095401;28;20044;-79
2022/12/06 11:23:11;;;;;;;;;;;;;;;5.69;72.24;96689.66;5095669;28;20597;-79
2022/12/06 11:25:46;;;;;;;7.35;6.07;;;;;;;5.67;72.21;96694.19;5095230;28;19923;-79
2022/12/06 11:28:23;;;;;;;8.07;6.55;;;;;;;5.65;72.72;96690.94;5095218;28;20052;-79
2022/12/06 11:30:54;;;;;;;7.05;6.28;;;;;;;5.64;72.78;96691.06;5095325;28;20055;-79
2022/12/06 11:33:31;;;;;;;7.97;6.85;;;;;;;5.66;72.91;96696.91;5095809;28;20054;-79
2022/12/06 11:36:02;;;;;;;10.55;8.75;;;;;;;5.65;73.68;96687.53;5095556;28;20421;-79
2022/12/06 11:38:31;;;;;;;15.70;11.30;;;;;;;5.65;73.02;96698.69;5094899;28;20075;-79
2022/12/06 11:40:59;;;;;;;14.18;10.00;;;;;;;5.63;73.12;96692.03;5095123;28;20041;-79
2022/12/06 11:43:34;;;;;;;9.38;7.45;;;;;;;5.60;72.25;96687.97;5094828;28;20048;-79
2022/12/06 11:46:03;;;;;;;11.52;8.40;;;;;;;5.62;72.64;96690.41;5095092;28;20059;-79
2022/12/06 11:48:35;;;;;;;13.65;10.65;;;;;;;5.61;72.95;96687.00;5094500;28;20507;-79
2022/12/06 11:51:12;;;;;;;14.88;11.07;;;;;;;5.63;72.60;96686.88;5094741;28;20048;-79
2022/12/06 11:53:52;;;;;;;12.52;9.57;;;;;;;5.65;73.35;96679.78;5101372;28;20162;-80
2022/12/06 11:56:23;;;;;;;12.60;8.93;;;;;;;5.66;73.15;96684.78;5100605;28;20398;-80
2022/12/06 11:59:19;;;;;;;12.52;9.63;;;;;;;5.65;73.30;96680.56;5098566;28;20055;-79
2022/12/06 12:01:49;;;;;;;15.07;9.93;;;;;;;5.65;72.17;96677.19;5094653;28;20040;-81
2022/12/06 12:04:30;;;;;;;12.95;10.43;;;;;;;5.61;72.58;96671.47;5094460;28;20044;-82
2022/12/06 12:07:00;;;;;;;14.25;10.38;;;;;;;5.58;73.31;96671.78;5095532;28;20063;-79
2022/12/06 12:09:31;;;;;;;13.30;9.80;;;;;;;5.57;72.35;96670.16;5094849;28;20040;-79
2022/12/06 12:12:02;;;;;;;13.27;8.77;;;;;;;5.56;72.69;96673.72;5094498;28;20047;-79